sensor_id;sensor_type;location;lat;lon;timestamp;pressure;altitude;pressure_sealevel;temperature;humidity
28588;BME280;15787;49.662;10.162;2023-06-10T00:02:01;98822.06;;;15.20;99.32
28588;BME280;15787;49.662;10.162;2023-06-10T00:04:36;98822.53;;;15.37;98.61
28588;BME280;15787;49.662;10.162;2023-06-10T00:07:10;98817.06;;;15.24;99.15
28588;BME280;15787;49.662;10.162;2023-06-10T00:09:43;98819.88;;;15.15;98.60
28588;BME280;15787;49.662;10.162;2023-06-10T00:12:16;98827.66;;;15.11;98.56
28588;BME280;15787;49.662;10.162;2023-06-10T00:14:49;98824.38;;;14.94;99.34
28588;BME280;15787;49.662;10.162;2023-06-10T00:17:25;98815.47;;;14.96;99.68
28588;BME280;15787;49.662;10.162;2023-06-10T00:20:00;98820.63;;;15.06;99.68
28588;BME280;15787;49.662;10.162;2023-06-10T00:22:38;98816.22;;;14.78;100.00
28588;BME280;15787;49.662;10.162;2023-06-10T00:25:13;98807.66;;;14.82;100.00
28588;BME280;15787;49.662;10.162;2023-06-10T00:27:46;98823.88;;;14.78;100.00
28588;BME280;15787;49.662;10.162;2023-06-10T00:30:20;98820.75;;;14.85;100.00
28588;BME280;15787;49.662;10.162;2023-06-10T00:32:53;98817.63;;;14.83;100.00
28588;BME280;15787;49.662;10.162;2023-06-10T00:35:26;98821.09;;;14.87;99.71
28588;BME280;15787;49.662;10.162;2023-06-10T00:38:00;98820.56;;;14.70;99.83
28588;BME280;15787;49.662;10.162;2023-06-10T00:40:39;98822.75;;;14.66;99.85
28588;BME280;15787;49.662;10.162;2023-06-10T00:43:12;98815.72;;;14.62;100.00
28588;BME280;15787;49.662;10.162;2023-06-10T00:45:45;98820.97;;;14.50;100.00
28588;BME280;15787;49.662;10.162;2023-06-10T00:48:18;98824.59;;;14.60;100.00
28588;BME280;15787;49.662;10.162;2023-06-10T00:50:52;98826.97;;;14.71;100.00
28588;BME280;15787;49.662;10.162;2023-06-10T00:53:28;98829.53;;;14.47;100.00
28588;BME280;15787;49.662;10.162;2023-06-10T00:56:01;98834.25;;;14.50;100.00
28588;BME280;15787;49.662;10.162;2023-06-10T00:58:34;98828.00;;;14.55;100.00
28588;BME280;15787;49.662;10.162;2023-06-10T01:01:08;98826.41;;;14.45;100.00
28588;BME280;15787;49.662;10.162;2023-06-10T01:03:43;98821.00;;;14.29;100.00
28588;BME280;15787;49.662;10.162;2023-06-10T01:06:24;98825.28;;;14.33;100.00
28588;BME280;15787;49.662;10.162;2023-06-10T01:09:08;98831.53;;;14.37;100.00
28588;BME280;15787;49.662;10.162;2023-06-10T01:11:47;98827.00;;;14.31;100.00
28588;BME280;15787;49.662;10.162;2023-06-10T01:14:24;98835.03;;;14.29;100.00
28588;BME280;15787;49.662;10.162;2023-06-10T01:16:57;98835.34;;;14.22;100.00
28588;BME280;15787;49.662;10.162;2023-06-10T01:19:33;98817.44;;;14.28;100.00
28588;BME280;15787;49.662;10.162;2023-06-10T01:22:09;98826.38;;;13.83;100.00
28588;BME280;15787;49.662;10.162;2023-06-10T01:24:48;98825.63;;;14.14;100.00
28588;BME280;15787;49.662;10.162;2023-06-10T01:27:22;98825.38;;;13.99;100.00
28588;BME280;15787;49.662;10.162;2023-06-10T01:30:00;98827.97;;;14.15;100.00
28588;BME280;15787;49.662;10.162;2023-06-10T01:32:40;98823.78;;;14.20;100.00
28588;BME280;15787;49.662;10.162;2023-06-10T01:35:17;98829.19;;;14.05;100.00
28588;BME280;15787;49.662;10.162;2023-06-10T01:37:54;98827.75;;;14.01;100.00
28588;BME280;15787;49.662;10.162;2023-06-10T01:40:28;98824.59;;;13.99;100.00
28588;BME280;15787;49.662;10.162;2023-06-10T01:43:02;98822.75;;;13.96;100.00
28588;BME280;15787;49.662;10.162;2023-06-10T01:45:35;98828.00;;;13.93;100.00
28588;BME280;15787;49.662;10.162;2023-06-10T01:48:08;98828.19;;;13.99;100.00
28588;BME280;15787;49.662;10.162;2023-06-10T01:50:41;98822.22;;;13.88;100.00
28588;BME280;15787;49.662;10.162;2023-06-10T01:53:16;98824.88;;;13.91;100.00
28588;BME280;15787;49.662;10.162;2023-06-10T01:55:50;98821.72;;;13.80;100.00
28588;BME280;15787;49.662;10.162;2023-06-10T01:58:23;98825.03;;;13.88;100.00
28588;BME280;15787;49.662;10.162;2023-06-10T02:00:56;98825.66;;;13.92;100.00
28588;BME280;15787;49.662;10.162;2023-06-10T02:03:30;98828.28;;;13.86;100.00
28588;BME280;15787;49.662;10.162;2023-06-10T02:06:03;98829.47;;;13.76;100.00
28588;BME280;15787;49.662;10.162;2023-06-10T02:08:38;98830.56;;;13.79;100.00
28588;BME280;15787;49.662;10.162;2023-06-10T02:11:11;98831.94;;;13.74;100.00
28588;BME280;15787;49.662;10.162;2023-06-10T02:13:44;98827.66;;;13.82;100.00
28588;BME280;15787;49.662;10.162;2023-06-10T02:16:17;98832.16;;;13.80;100.00
28588;BME280;15787;49.662;10.162;2023-06-10T02:18:50;98824.13;;;13.69;100.00
28588;BME280;15787;49.662;10.162;2023-06-10T02:21:23;98835.16;;;13.64;100.00
28588;BME280;15787;49.662;10.162;2023-06-10T02:23:57;98828.44;;;13.61;100.00
28588;BME280;15787;49.662;10.162;2023-06-10T02:26:30;98838.22;;;13.57;100.00
28588;BME280;15787;49.662;10.162;2023-06-10T02:29:04;98835.78;;;13.68;100.00
28588;BME280;15787;49.662;10.162;2023-06-10T02:31:37;98843.94;;;13.53;100.00
28588;BME280;15787;49.662;10.162;2023-06-10T02:34:12;98827.69;;;13.48;100.00
28588;BME280;15787;49.662;10.162;2023-06-10T02:36:45;98831.81;;;13.56;100.00
28588;BME280;15787;49.662;10.162;2023-06-10T02:39:22;98839.59;;;13.52;100.00
28588;BME280;15787;49.662;10.162;2023-06-10T02:41:55;98829.72;;;13.48;100.00
28588;BME280;15787;49.662;10.162;2023-06-10T02:44:28;98835.78;;;13.46;100.00
28588;BME280;15787;49.662;10.162;2023-06-10T02:47:02;98834.22;;;13.45;100.00
28588;BME280;15787;49.662;10.162;2023-06-10T02:49:35;98840.34;;;13.31;100.00
28588;BME280;15787;49.662;10.162;2023-06-10T02:52:08;98836.91;;;13.49;100.00
28588;BME280;15787;49.662;10.162;2023-06-10T02:54:44;98834.75;;;13.31;100.00
28588;BME280;15787;49.662;10.162;2023-06-10T02:57:18;98830.88;;;13.16;100.00
28588;BME280;15787;49.662;10.162;2023-06-10T02:59:51;98836.16;;;13.14;100.00
28588;BME280;15787;49.662;10.162;2023-06-10T03:02:25;98837.22;;;13.29;100.00
28588;BME280;15787;49.662;10.162;2023-06-10T03:05:00;98842.09;;;13.38;100.00
28588;BME280;15787;49.662;10.162;2023-06-10T03:07:34;98832.84;;;13.28;100.00
28588;BME280;15787;49.662;10.162;2023-06-10T03:10:09;98832.41;;;13.17;100.00
28588;BME280;15787;49.662;10.162;2023-06-10T03:12:44;98836.38;;;13.07;100.00
28588;BME280;15787;49.662;10.162;2023-06-10T03:15:17;98832.56;;;13.01;100.00
28588;BME280;15787;49.662;10.162;2023-06-10T03:17:53;98833.78;;;13.12;100.00
28588;BME280;15787;49.662;10.162;2023-06-10T03:20:27;98836.81;;;13.18;100.00
28588;BME280;15787;49.662;10.162;2023-06-10T03:23:01;98833.22;;;13.05;100.00
28588;BME280;15787;49.662;10.162;2023-06-10T03:25:36;98835.50;;;12.85;100.00
28588;BME280;15787;49.662;10.162;2023-06-10T03:28:09;98843.22;;;13.06;100.00
28588;BME280;15787;49.662;10.162;2023-06-10T03:30:43;98842.66;;;12.98;100.00
28588;BME280;15787;49.662;10.162;2023-06-10T03:33:17;98836.63;;;12.87;100.00
28588;BME280;15787;49.662;10.162;2023-06-10T03:35:50;98839.06;;;13.10;100.00
28588;BME280;15787;49.662;10.162;2023-06-10T03:38:23;98837.13;;;13.20;100.00
28588;BME280;15787;49.662;10.162;2023-06-10T03:40:59;98850.38;;;13.07;100.00
28588;BME280;15787;49.662;10.162;2023-06-10T03:43:32;98849.38;;;13.01;100.00
28588;BME280;15787;49.662;10.162;2023-06-10T03:46:05;98842.19;;;13.12;100.00
28588;BME280;15787;49.662;10.162;2023-06-10T03:48:39;98848.59;;;13.13;100.00
28588;BME280;15787;49.662;10.162;2023-06-10T03:51:13;98845.78;;;13.00;100.00
28588;BME280;15787;49.662;10.162;2023-06-10T03:53:46;98844.22;;;12.99;100.00
28588;BME280;15787;49.662;10.162;2023-06-10T03:56:21;98840.53;;;12.90;100.00
28588;BME280;15787;49.662;10.162;2023-06-10T03:58:54;98840.06;;;13.16;100.00
28588;BME280;15787;49.662;10.162;2023-06-10T04:01:27;98842.63;;;13.23;100.00
28588;BME280;15787;49.662;10.162;2023-06-10T04:04:01;98853.56;;;13.09;100.00
28588;BME280;15787;49.662;10.162;2023-06-10T04:06:37;98857.47;;;13.11;100.00
28588;BME280;15787;49.662;10.162;2023-06-10T04:09:14;98860.66;;;13.22;100.00
28588;BME280;15787;49.662;10.162;2023-06-10T04:11:49;98861.25;;;13.17;100.00
28588;BME280;15787;49.662;10.162;2023-06-10T04:14:23;98858.59;;;13.14;100.00
28588;BME280;15787;49.662;10.162;2023-06-10T04:16:57;98863.84;;;13.12;100.00
28588;BME280;15787;49.662;10.162;2023-06-10T04:19:31;98854.75;;;13.20;100.00
28588;BME280;15787;49.662;10.162;2023-06-10T04:22:04;98859.44;;;13.23;100.00
28588;BME280;15787;49.662;10.162;2023-06-10T04:24:43;98861.50;;;13.45;100.00
28588;BME280;15787;49.662;10.162;2023-06-10T04:27:18;98859.59;;;13.42;100.00
28588;BME280;15787;49.662;10.162;2023-06-10T04:29:52;98858.88;;;13.50;100.00
28588;BME280;15787;49.662;10.162;2023-06-10T04:32:26;98861.03;;;13.46;100.00
28588;BME280;15787;49.662;10.162;2023-06-10T04:35:00;98869.97;;;13.54;100.00
28588;BME280;15787;49.662;10.162;2023-06-10T04:37:34;98874.22;;;13.58;100.00
28588;BME280;15787;49.662;10.162;2023-06-10T04:40:08;98878.59;;;13.59;100.00
28588;BME280;15787;49.662;10.162;2023-06-10T04:42:42;98877.03;;;13.58;100.00
28588;BME280;15787;49.662;10.162;2023-06-10T04:45:17;98876.38;;;13.76;100.00
28588;BME280;15787;49.662;10.162;2023-06-10T04:47:50;98874.75;;;13.87;100.00
28588;BME280;15787;49.662;10.162;2023-06-10T04:50:23;98879.13;;;13.88;100.00
28588;BME280;15787;49.662;10.162;2023-06-10T04:52:56;98873.97;;;13.87;100.00
28588;BME280;15787;49.662;10.162;2023-06-10T04:55:29;98869.59;;;14.08;100.00
28588;BME280;15787;49.662;10.162;2023-06-10T04:58:04;98870.09;;;13.93;100.00
28588;BME280;15787;49.662;10.162;2023-06-10T05:00:37;98868.56;;;13.92;100.00
28588;BME280;15787;49.662;10.162;2023-06-10T05:03:11;98863.56;;;14.18;100.00
28588;BME280;15787;49.662;10.162;2023-06-10T05:05:44;98870.72;;;14.41;100.00
28588;BME280;15787;49.662;10.162;2023-06-10T05:08:18;98856.72;;;14.50;100.00
28588;BME280;15787;49.662;10.162;2023-06-10T05:10:51;98863.31;;;14.56;100.00
28588;BME280;15787;49.662;10.162;2023-06-10T05:13:25;98868.81;;;14.69;100.00
28588;BME280;15787;49.662;10.162;2023-06-10T05:15:58;98869.75;;;14.75;100.00
28588;BME280;15787;49.662;10.162;2023-06-10T05:18:31;98854.72;;;14.60;100.00
28588;BME280;15787;49.662;10.162;2023-06-10T05:21:04;98862.91;;;14.76;100.00
28588;BME280;15787;49.662;10.162;2023-06-10T05:23:37;98859.97;;;14.88;100.00
28588;BME280;15787;49.662;10.162;2023-06-10T05:26:10;98861.91;;;15.09;100.00
28588;BME280;15787;49.662;10.162;2023-06-10T05:28:45;98866.59;;;15.12;100.00
28588;BME280;15787;49.662;10.162;2023-06-10T05:31:18;98870.06;;;15.35;100.00
28588;BME280;15787;49.662;10.162;2023-06-10T05:33:51;98867.56;;;15.46;100.00
28588;BME280;15787;49.662;10.162;2023-06-10T05:36:24;98873.53;;;15.66;100.00
28588;BME280;15787;49.662;10.162;2023-06-10T05:38:58;98874.16;;;15.70;100.00
28588;BME280;15787;49.662;10.162;2023-06-10T05:41:31;98873.53;;;15.75;100.00
28588;BME280;15787;49.662;10.162;2023-06-10T05:44:06;98878.66;;;16.04;100.00
28588;BME280;15787;49.662;10.162;2023-06-10T05:46:39;98872.22;;;16.12;98.50
28588;BME280;15787;49.662;10.162;2023-06-10T05:49:12;98871.91;;;16.19;99.42
28588;BME280;15787;49.662;10.162;2023-06-10T05:51:45;98873.41;;;16.38;98.76
28588;BME280;15787;49.662;10.162;2023-06-10T05:54:18;98885.13;;;16.46;97.55
28588;BME280;15787;49.662;10.162;2023-06-10T05:56:51;98886.00;;;16.70;96.92
28588;BME280;15787;49.662;10.162;2023-06-10T05:59:26;98897.31;;;16.94;95.72
28588;BME280;15787;49.662;10.162;2023-06-10T06:01:59;98892.09;;;17.01;94.48
28588;BME280;15787;49.662;10.162;2023-06-10T06:04:33;98895.78;;;17.17;94.62
28588;BME280;15787;49.662;10.162;2023-06-10T06:07:09;98893.78;;;17.32;93.76
28588;BME280;15787;49.662;10.162;2023-06-10T06:09:42;98896.88;;;17.43;91.92
28588;BME280;15787;49.662;10.162;2023-06-10T06:12:15;98894.41;;;17.59;90.63
28588;BME280;15787;49.662;10.162;2023-06-10T06:14:50;98892.38;;;17.60;90.97
28588;BME280;15787;49.662;10.162;2023-06-10T06:17:23;98897.41;;;17.80;90.58
28588;BME280;15787;49.662;10.162;2023-06-10T06:19:57;98896.13;;;17.95;89.46
28588;BME280;15787;49.662;10.162;2023-06-10T06:22:30;98891.97;;;18.05;89.19
28588;BME280;15787;49.662;10.162;2023-06-10T06:25:05;98900.84;;;18.13;88.33
28588;BME280;15787;49.662;10.162;2023-06-10T06:27:44;98890.44;;;18.63;85.38
28588;BME280;15787;49.662;10.162;2023-06-10T06:30:23;98897.75;;;18.69;84.50
28588;BME280;15787;49.662;10.162;2023-06-10T06:33:00;98895.38;;;18.82;83.69
28588;BME280;15787;49.662;10.162;2023-06-10T06:35:45;98899.50;;;19.16;83.20
28588;BME280;15787;49.662;10.162;2023-06-10T06:38:24;98893.97;;;19.42;83.21
28588;BME280;15787;49.662;10.162;2023-06-10T06:41:01;98894.75;;;19.63;80.86
28588;BME280;15787;49.662;10.162;2023-06-10T06:43:36;98888.38;;;19.68;79.67
28588;BME280;15787;49.662;10.162;2023-06-10T06:46:32;98891.94;;;19.88;78.25
28588;BME280;15787;49.662;10.162;2023-06-10T06:49:10;98899.13;;;20.09;77.38
28588;BME280;15787;49.662;10.162;2023-06-10T06:51:49;98900.09;;;20.27;76.80
28588;BME280;15787;49.662;10.162;2023-06-10T06:54:25;98902.53;;;20.39;76.24
28588;BME280;15787;49.662;10.162;2023-06-10T06:57:00;98905.19;;;20.74;75.76
28588;BME280;15787;49.662;10.162;2023-06-10T06:59:34;98906.66;;;21.01;75.46
28588;BME280;15787;49.662;10.162;2023-06-10T07:02:11;98906.41;;;20.99;73.16
28588;BME280;15787;49.662;10.162;2023-06-10T07:12:43;98906.19;;;21.98;72.58
28588;BME280;15787;49.662;10.162;2023-06-10T07:15:19;98902.88;;;22.27;72.70
28588;BME280;15787;49.662;10.162;2023-06-10T07:17:53;98901.44;;;22.65;70.29
28588;BME280;15787;49.662;10.162;2023-06-10T07:20:27;98910.97;;;22.79;69.88
28588;BME280;15787;49.662;10.162;2023-06-10T07:23:01;98912.81;;;22.93;69.79
28588;BME280;15787;49.662;10.162;2023-06-10T07:25:34;98915.13;;;23.11;67.72
28588;BME280;15787;49.662;10.162;2023-06-10T07:28:07;98908.59;;;23.27;68.64
28588;BME280;15787;49.662;10.162;2023-06-10T07:30:40;98916.63;;;23.28;69.91
28588;BME280;15787;49.662;10.162;2023-06-10T07:33:14;98913.75;;;23.51;66.57
28588;BME280;15787;49.662;10.162;2023-06-10T07:35:47;98908.44;;;23.82;67.50
28588;BME280;15787;49.662;10.162;2023-06-10T07:38:20;98910.84;;;23.67;65.17
28588;BME280;15787;49.662;10.162;2023-06-10T07:40:53;98911.56;;;23.84;66.08
28588;BME280;15787;49.662;10.162;2023-06-10T07:43:26;98900.22;;;24.25;63.08
28588;BME280;15787;49.662;10.162;2023-06-10T07:45:59;98907.28;;;24.13;64.11
28588;BME280;15787;49.662;10.162;2023-06-10T07:48:34;98907.50;;;24.21;65.80
28588;BME280;15787;49.662;10.162;2023-06-10T07:51:07;98904.09;;;24.28;63.15
28588;BME280;15787;49.662;10.162;2023-06-10T07:53:40;98903.31;;;24.27;62.80
28588;BME280;15787;49.662;10.162;2023-06-10T07:56:12;98902.16;;;24.47;63.00
28588;BME280;15787;49.662;10.162;2023-06-10T07:58:46;98902.38;;;24.49;63.58
28588;BME280;15787;49.662;10.162;2023-06-10T08:01:19;98897.00;;;25.05;62.62
28588;BME280;15787;49.662;10.162;2023-06-10T08:03:53;98891.53;;;24.77;61.49
28588;BME280;15787;49.662;10.162;2023-06-10T08:06:26;98902.66;;;24.86;64.05
28588;BME280;15787;49.662;10.162;2023-06-10T08:09:02;98901.84;;;25.16;62.36
28588;BME280;15787;49.662;10.162;2023-06-10T08:11:35;98904.78;;;25.04;62.57
28588;BME280;15787;49.662;10.162;2023-06-10T08:14:08;98898.66;;;25.25;60.79
28588;BME280;15787;49.662;10.162;2023-06-10T08:16:42;98905.50;;;25.64;56.26
28588;BME280;15787;49.662;10.162;2023-06-10T08:19:17;98897.03;;;25.96;57.49
28588;BME280;15787;49.662;10.162;2023-06-10T08:21:50;98902.94;;;26.22;56.26
28588;BME280;15787;49.662;10.162;2023-06-10T08:24:23;98897.22;;;26.22;54.84
28588;BME280;15787;49.662;10.162;2023-06-10T08:26:56;98899.66;;;27.01;56.01
28588;BME280;15787;49.662;10.162;2023-06-10T08:29:29;98892.47;;;26.94;54.29
28588;BME280;15787;49.662;10.162;2023-06-10T08:32:04;98889.22;;;27.16;54.13
28588;BME280;15787;49.662;10.162;2023-06-10T08:34:39;98886.44;;;27.11;53.42
28588;BME280;15787;49.662;10.162;2023-06-10T08:37:12;98887.41;;;27.45;53.41
28588;BME280;15787;49.662;10.162;2023-06-10T08:39:45;98888.28;;;27.53;54.19
28588;BME280;15787;49.662;10.162;2023-06-10T08:42:28;98887.25;;;27.77;51.98
28588;BME280;15787;49.662;10.162;2023-06-10T08:45:07;98891.28;;;27.03;51.61
28588;BME280;15787;49.662;10.162;2023-06-10T08:47:45;98896.63;;;27.38;53.33
28588;BME280;15787;49.662;10.162;2023-06-10T08:50:20;98890.16;;;27.50;52.54
28588;BME280;15787;49.662;10.162;2023-06-10T08:52:57;98889.06;;;27.53;51.96
28588;BME280;15787;49.662;10.162;2023-06-10T08:55:32;98893.56;;;27.62;51.96
28588;BME280;15787;49.662;10.162;2023-06-10T08:58:05;98887.81;;;28.01;53.69
28588;BME280;15787;49.662;10.162;2023-06-10T09:00:39;98883.94;;;28.12;52.12
28588;BME280;15787;49.662;10.162;2023-06-10T09:03:12;98876.97;;;27.94;52.27
28588;BME280;15787;49.662;10.162;2023-06-10T09:05:48;98875.59;;;28.35;49.63
28588;BME280;15787;49.662;10.162;2023-06-10T09:08:25;98874.88;;;28.08;50.66
28588;BME280;15787;49.662;10.162;2023-06-10T09:10:58;98880.34;;;28.53;50.87
28588;BME280;15787;49.662;10.162;2023-06-10T09:13:32;98882.81;;;28.49;49.66
28588;BME280;15787;49.662;10.162;2023-06-10T09:16:04;98875.06;;;28.23;49.48
28588;BME280;15787;49.662;10.162;2023-06-10T09:18:38;98875.81;;;26.92;50.49
28588;BME280;15787;49.662;10.162;2023-06-10T09:21:12;98867.38;;;28.39;50.72
28588;BME280;15787;49.662;10.162;2023-06-10T09:23:46;98864.88;;;27.49;49.49
28588;BME280;15787;49.662;10.162;2023-06-10T09:26:19;98869.06;;;27.74;49.13
28588;BME280;15787;49.662;10.162;2023-06-10T09:28:58;98865.38;;;28.47;50.15
28588;BME280;15787;49.662;10.162;2023-06-10T09:31:36;98859.75;;;28.75;51.24
28588;BME280;15787;49.662;10.162;2023-06-10T09:34:10;98863.41;;;29.04;49.17
28588;BME280;15787;49.662;10.162;2023-06-10T09:36:45;98867.44;;;29.01;49.79
28588;BME280;15787;49.662;10.162;2023-06-10T09:39:18;98867.66;;;29.23;47.89
28588;BME280;15787;49.662;10.162;2023-06-10T09:41:52;98863.13;;;29.35;47.78
28588;BME280;15787;49.662;10.162;2023-06-10T09:44:25;98871.84;;;29.51;48.70
28588;BME280;15787;49.662;10.162;2023-06-10T09:46:58;98863.53;;;29.19;46.27
28588;BME280;15787;49.662;10.162;2023-06-10T09:49:31;98864.06;;;28.68;47.37
28588;BME280;15787;49.662;10.162;2023-06-10T09:52:06;98859.25;;;29.61;49.62
28588;BME280;15787;49.662;10.162;2023-06-10T09:54:39;98859.66;;;29.37;47.58
28588;BME280;15787;49.662;10.162;2023-06-10T09:57:12;98856.28;;;29.46;46.86
28588;BME280;15787;49.662;10.162;2023-06-10T09:59:46;98861.59;;;30.06;47.81
28588;BME280;15787;49.662;10.162;2023-06-10T10:02:20;98861.19;;;29.10;46.78
28588;BME280;15787;49.662;10.162;2023-06-10T10:04:53;98861.91;;;29.52;48.97
28588;BME280;15787;49.662;10.162;2023-06-10T10:07:32;98859.81;;;29.95;47.97
28588;BME280;15787;49.662;10.162;2023-06-10T10:10:06;98853.81;;;30.29;47.13
28588;BME280;15787;49.662;10.162;2023-06-10T10:12:40;98847.09;;;29.48;48.01
28588;BME280;15787;49.662;10.162;2023-06-10T10:15:15;98850.88;;;29.42;47.18
28588;BME280;15787;49.662;10.162;2023-06-10T10:17:52;98850.03;;;30.49;47.02
28588;BME280;15787;49.662;10.162;2023-06-10T10:20:29;98851.75;;;30.45;46.30
28588;BME280;15787;49.662;10.162;2023-06-10T10:23:06;98851.44;;;30.05;46.12
28588;BME280;15787;49.662;10.162;2023-06-10T10:25:42;98842.81;;;31.01;46.28
28588;BME280;15787;49.662;10.162;2023-06-10T10:28:16;98841.63;;;31.50;45.13
28588;BME280;15787;49.662;10.162;2023-06-10T10:30:54;98842.56;;;31.60;45.84
28588;BME280;15787;49.662;10.162;2023-06-10T10:33:37;98849.56;;;30.15;44.79
28588;BME280;15787;49.662;10.162;2023-06-10T10:36:15;98838.81;;;31.82;43.74
28588;BME280;15787;49.662;10.162;2023-06-10T10:38:50;98842.69;;;31.77;43.90
28588;BME280;15787;49.662;10.162;2023-06-10T10:41:24;98835.09;;;31.26;44.24
28588;BME280;15787;49.662;10.162;2023-06-10T10:43:59;98834.31;;;31.49;43.13
28588;BME280;15787;49.662;10.162;2023-06-10T10:46:42;98840.06;;;31.56;46.12
28588;BME280;15787;49.662;10.162;2023-06-10T10:49:15;98832.16;;;32.12;43.01
28588;BME280;15787;49.662;10.162;2023-06-10T10:51:55;98823.75;;;31.91;44.06
28588;BME280;15787;49.662;10.162;2023-06-10T10:54:32;98817.59;;;32.02;43.62
28588;BME280;15787;49.662;10.162;2023-06-10T10:57:15;98816.19;;;32.43;43.29
28588;BME280;15787;49.662;10.162;2023-06-10T10:59:54;98814.91;;;32.36;44.36
28588;BME280;15787;49.662;10.162;2023-06-10T11:02:40;98822.41;;;32.00;44.29
28588;BME280;15787;49.662;10.162;2023-06-10T11:05:16;98818.09;;;30.32;45.95
28588;BME280;15787;49.662;10.162;2023-06-10T11:07:54;98808.97;;;30.94;45.60
28588;BME280;15787;49.662;10.162;2023-06-10T11:10:33;98809.53;;;31.15;45.22
28588;BME280;15787;49.662;10.162;2023-06-10T11:13:08;98810.31;;;31.08;45.35
28588;BME280;15787;49.662;10.162;2023-06-10T11:15:44;98818.78;;;30.76;44.60
28588;BME280;15787;49.662;10.162;2023-06-10T11:18:22;98813.03;;;31.84;43.26
28588;BME280;15787;49.662;10.162;2023-06-10T11:20:58;98801.25;;;30.82;43.83
28588;BME280;15787;49.662;10.162;2023-06-10T11:23:40;98815.56;;;31.80;44.51
28588;BME280;15787;49.662;10.162;2023-06-10T11:26:19;98815.59;;;32.44;43.98
28588;BME280;15787;49.662;10.162;2023-06-10T11:29:05;98798.78;;;30.55;42.65
28588;BME280;15787;49.662;10.162;2023-06-10T11:31:44;98798.16;;;32.03;42.22
28588;BME280;15787;49.662;10.162;2023-06-10T11:34:23;98802.09;;;31.75;42.20
28588;BME280;15787;49.662;10.162;2023-06-10T11:37:02;98791.00;;;32.68;42.21
28588;BME280;15787;49.662;10.162;2023-06-10T11:39:35;98799.31;;;31.92;42.43
28588;BME280;15787;49.662;10.162;2023-06-10T11:42:10;98797.06;;;32.80;42.37
28588;BME280;15787;49.662;10.162;2023-06-10T11:44:48;98785.97;;;33.35;41.88
28588;BME280;15787;49.662;10.162;2023-06-10T11:47:21;98791.22;;;33.46;40.73
28588;BME280;15787;49.662;10.162;2023-06-10T11:49:56;98792.72;;;33.13;41.73
28588;BME280;15787;49.662;10.162;2023-06-10T11:52:34;98800.09;;;32.32;39.83
28588;BME280;15787;49.662;10.162;2023-06-10T11:55:12;98792.00;;;33.30;41.33
28588;BME280;15787;49.662;10.162;2023-06-10T11:57:47;98798.22;;;32.52;42.16
28588;BME280;15787;49.662;10.162;2023-06-10T12:00:20;98789.34;;;33.07;42.33
28588;BME280;15787;49.662;10.162;2023-06-10T12:02:57;98803.03;;;32.49;40.33
28588;BME280;15787;49.662;10.162;2023-06-10T12:05:30;98795.25;;;31.55;40.46
28588;BME280;15787;49.662;10.162;2023-06-10T12:08:09;98788.16;;;33.10;42.06
28588;BME280;15787;49.662;10.162;2023-06-10T12:10:42;98787.91;;;33.50;42.17
28588;BME280;15787;49.662;10.162;2023-06-10T12:13:17;98782.97;;;33.01;40.26
28588;BME280;15787;49.662;10.162;2023-06-10T12:15:50;98788.91;;;32.36;42.07
28588;BME280;15787;49.662;10.162;2023-06-10T12:18:23;98787.69;;;32.72;41.27
28588;BME280;15787;49.662;10.162;2023-06-10T12:20:56;98796.22;;;31.98;42.73
28588;BME280;15787;49.662;10.162;2023-06-10T12:23:29;98786.94;;;31.59;43.25
28588;BME280;15787;49.662;10.162;2023-06-10T12:26:02;98790.69;;;31.22;43.62
28588;BME280;15787;49.662;10.162;2023-06-10T12:28:37;98780.72;;;30.70;43.35
28588;BME280;15787;49.662;10.162;2023-06-10T12:31:10;98777.91;;;31.63;43.28
28588;BME280;15787;49.662;10.162;2023-06-10T12:33:43;98768.47;;;31.62;42.71
28588;BME280;15787;49.662;10.162;2023-06-10T12:36:18;98771.81;;;32.56;43.48
28588;BME280;15787;49.662;10.162;2023-06-10T12:39:02;98777.34;;;32.86;41.85
28588;BME280;15787;49.662;10.162;2023-06-10T12:41:37;98783.28;;;32.06;41.15
28588;BME280;15787;49.662;10.162;2023-06-10T12:44:11;98778.66;;;32.68;42.60
28588;BME280;15787;49.662;10.162;2023-06-10T12:46:44;98776.59;;;32.61;42.25
28588;BME280;15787;49.662;10.162;2023-06-10T12:49:20;98786.25;;;31.21;43.02
28588;BME280;15787;49.662;10.162;2023-06-10T12:51:53;98776.00;;;31.58;43.19
28588;BME280;15787;49.662;10.162;2023-06-10T12:54:27;98774.28;;;31.40;43.60
28588;BME280;15787;49.662;10.162;2023-06-10T12:57:00;98773.13;;;31.35;44.46
28588;BME280;15787;49.662;10.162;2023-06-10T12:59:34;98778.00;;;30.42;45.57
28588;BME280;15787;49.662;10.162;2023-06-10T13:02:07;98775.44;;;30.16;46.33
28588;BME280;15787;49.662;10.162;2023-06-10T13:04:40;98778.78;;;30.35;46.31
28588;BME280;15787;49.662;10.162;2023-06-10T13:07:14;98773.81;;;30.58;46.87
28588;BME280;15787;49.662;10.162;2023-06-10T13:09:47;98768.81;;;30.96;43.78
28588;BME280;15787;49.662;10.162;2023-06-10T13:12:21;98760.59;;;32.03;44.12
28588;BME280;15787;49.662;10.162;2023-06-10T13:15:14;98763.06;;;32.38;42.89
28588;BME280;15787;49.662;10.162;2023-06-10T13:17:47;98751.72;;;32.08;42.91
28588;BME280;15787;49.662;10.162;2023-06-10T13:20:23;98755.19;;;32.64;41.22
28588;BME280;15787;49.662;10.162;2023-06-10T13:22:56;98751.72;;;32.08;42.08
28588;BME280;15787;49.662;10.162;2023-06-10T13:25:29;98755.38;;;32.01;42.88
28588;BME280;15787;49.662;10.162;2023-06-10T13:28:02;98758.94;;;31.30;43.22
28588;BME280;15787;49.662;10.162;2023-06-10T13:30:36;98750.31;;;31.22;42.57
28588;BME280;15787;49.662;10.162;2023-06-10T13:33:09;98748.88;;;31.53;42.57